createdAt,value
2018-12-02T00:00:20.568Z,5.31
2018-12-02T00:01:20.596Z,5.36
2018-12-02T00:02:20.555Z,5.31
2018-12-02T00:03:20.441Z,5.34
2018-12-02T00:04:20.411Z,5.39
2018-12-02T00:05:20.586Z,5.33
2018-12-02T00:06:20.617Z,5.38
2018-12-02T00:07:20.383Z,5.38
2018-12-02T00:08:20.472Z,5.4
2018-12-02T00:09:20.910Z,5.36
2018-12-02T00:10:20.431Z,5.35
2018-12-02T00:11:20.705Z,5.38
2018-12-02T00:12:20.595Z,5.32
2018-12-02T00:13:20.429Z,5.36
2018-12-02T00:14:20.555Z,5.32
2018-12-02T00:15:20.444Z,5.39
2018-12-02T00:16:20.475Z,5.37
2018-12-02T00:17:20.438Z,5.42
2018-12-02T00:18:20.414Z,5.39
2018-12-02T00:19:20.648Z,5.37
2018-12-02T00:20:20.583Z,5.32
2018-12-02T00:21:20.576Z,5.38
2018-12-02T00:22:20.563Z,5.42
2018-12-02T00:23:20.555Z,5.45
2018-12-02T00:24:20.577Z,5.43
2018-12-02T00:25:20.434Z,5.48
2018-12-02T00:26:20.473Z,5.47
2018-12-02T00:27:20.495Z,5.46
2018-12-02T00:28:20.672Z,5.4
2018-12-02T00:29:20.627Z,5.4
2018-12-02T00:30:20.583Z,5.39
2018-12-02T00:31:20.340Z,5.42
2018-12-02T00:32:20.531Z,5.4
2018-12-02T00:33:20.379Z,5.31
2018-12-02T00:34:20.426Z,5.31
2018-12-02T00:35:20.348Z,5.34
2018-12-02T00:36:21.198Z,5.37
2018-12-02T00:37:20.364Z,5.36
2018-12-02T00:38:20.418Z,5.34
2018-12-02T00:39:20.549Z,5.34
2018-12-02T00:40:20.640Z,5.38
2018-12-02T00:41:20.597Z,5.4
2018-12-02T00:42:20.572Z,5.35
2018-12-02T00:43:20.458Z,5.34
2018-12-02T00:44:20.375Z,5.39
2018-12-02T00:45:20.639Z,5.4
2018-12-02T00:46:20.492Z,5.42
2018-12-02T00:47:20.362Z,5.41
2018-12-02T00:48:20.609Z,5.38
2018-12-02T00:49:20.574Z,5.36
2018-12-02T00:50:20.318Z,5.38
2018-12-02T00:51:20.550Z,5.43
2018-12-02T00:52:20.662Z,5.44
2018-12-02T00:53:20.745Z,5.43
2018-12-02T00:54:20.570Z,5.44
2018-12-02T00:55:20.483Z,5.44
2018-12-02T00:56:20.408Z,5.5
2018-12-02T00:57:20.315Z,5.46
2018-12-02T00:58:20.362Z,5.43
2018-12-02T00:59:20.645Z,5.43
2018-12-02T01:00:20.496Z,5.45
2018-12-02T01:01:20.307Z,5.45
2018-12-02T01:02:20.462Z,5.47
2018-12-02T01:03:20.607Z,5.47
2018-12-02T01:04:20.339Z,5.47
2018-12-02T01:05:20.351Z,5.48
2018-12-02T01:06:20.359Z,5.43
2018-12-02T01:07:20.334Z,5.47
2018-12-02T01:08:20.360Z,5.48
2018-12-02T01:09:20.342Z,5.43
2018-12-02T01:10:20.375Z,5.4
2018-12-02T01:11:20.694Z,5.41
2018-12-02T01:12:20.359Z,5.46
2018-12-02T01:13:20.320Z,5.46
2018-12-02T01:14:20.406Z,5.42
2018-12-02T01:15:20.398Z,5.43
2018-12-02T01:16:20.345Z,5.45
2018-12-02T01:17:20.566Z,5.4
2018-12-02T01:18:20.302Z,5.38
2018-12-02T01:19:20.312Z,5.43
2018-12-02T01:20:20.333Z,5.48
2018-12-02T01:21:20.322Z,5.53
2018-12-02T01:22:20.361Z,5.41
2018-12-02T01:23:20.331Z,5.43
2018-12-02T01:24:20.356Z,5.42
2018-12-02T01:25:20.624Z,5.42
2018-12-02T01:26:20.272Z,5.46
2018-12-02T01:27:20.331Z,5.36
2018-12-02T01:28:20.472Z,5.34
2018-12-02T01:29:20.365Z,5.4
2018-12-02T01:30:20.303Z,5.44
2018-12-02T01:31:20.585Z,5.37
2018-12-02T01:32:20.636Z,5.4
2018-12-02T01:33:20.331Z,5.43
2018-12-02T01:34:20.622Z,5.34
2018-12-02T01:35:20.390Z,5.38
2018-12-02T01:36:20.584Z,5.37
2018-12-02T01:37:20.383Z,5.37
2018-12-02T01:38:20.471Z,5.33
2018-12-02T01:39:20.480Z,5.35
2018-12-02T01:40:20.281Z,5.29
2018-12-02T01:41:20.428Z,5.36
2018-12-02T01:42:20.354Z,5.35
2018-12-02T01:43:20.495Z,5.34
2018-12-02T01:44:20.570Z,5.33
2018-12-02T01:45:20.343Z,5.35
2018-12-02T01:46:20.426Z,5.28
2018-12-02T01:47:20.456Z,5.32
2018-12-02T01:48:20.703Z,5.34
2018-12-02T01:49:20.352Z,5.26
2018-12-02T01:50:20.455Z,5.32
2018-12-02T01:51:20.329Z,5.34
2018-12-02T01:52:20.303Z,5.34
2018-12-02T01:53:20.701Z,5.28
2018-12-02T01:54:20.350Z,5.26
2018-12-02T01:55:20.281Z,5.32
2018-12-02T01:56:20.450Z,5.31
2018-12-02T01:57:20.421Z,5.33
2018-12-02T01:58:20.326Z,5.33
2018-12-02T01:59:20.257Z,5.32
2018-12-02T02:00:20.519Z,5.3
2018-12-02T02:01:20.637Z,5.31
2018-12-02T02:02:20.515Z,5.38
2018-12-02T02:03:20.499Z,5.34
2018-12-02T02:04:20.512Z,5.4
2018-12-02T02:05:20.359Z,5.39
2018-12-02T02:06:20.308Z,5.34
2018-12-02T02:07:20.290Z,5.37
2018-12-02T02:08:20.462Z,5.37
2018-12-02T02:09:20.257Z,5.34
2018-12-02T02:10:20.255Z,5.35
2018-12-02T02:11:20.289Z,5.38
2018-12-02T02:12:20.620Z,5.38
2018-12-02T02:13:20.303Z,5.39
2018-12-02T02:14:20.238Z,5.4
2018-12-02T02:15:20.322Z,5.42
2018-12-02T02:16:20.346Z,5.4
2018-12-02T02:17:20.422Z,5.41
2018-12-02T02:18:20.545Z,5.42
2018-12-02T02:19:20.349Z,5.39
2018-12-02T02:20:20.270Z,5.38
2018-12-02T02:21:20.216Z,5.44
2018-12-02T02:22:20.422Z,5.48
2018-12-02T02:23:20.389Z,5.44
2018-12-02T02:24:20.210Z,5.47
2018-12-02T02:25:20.223Z,5.48
2018-12-02T02:26:20.227Z,5.39
2018-12-02T02:27:20.268Z,5.44
2018-12-02T02:28:20.286Z,5.47
2018-12-02T02:29:20.191Z,5.5
2018-12-02T02:30:20.235Z,5.47
2018-12-02T02:31:20.417Z,5.5
2018-12-02T02:32:20.384Z,5.5
2018-12-02T02:33:20.254Z,5.5
2018-12-02T02:34:20.252Z,5.51
2018-12-02T02:35:20.206Z,5.55
2018-12-02T02:36:20.447Z,5.53
2018-12-02T02:37:20.245Z,5.53
2018-12-02T02:38:20.378Z,5.53
2018-12-02T02:39:20.408Z,5.56
2018-12-02T02:40:20.287Z,5.53
2018-12-02T02:41:20.319Z,5.55
2018-12-02T02:42:20.458Z,5.53
2018-12-02T02:43:20.207Z,5.55
2018-12-02T02:44:20.192Z,5.59
2018-12-02T02:45:20.390Z,5.6
2018-12-02T02:46:20.224Z,5.61
2018-12-02T02:47:20.206Z,5.62
2018-12-02T02:48:20.191Z,5.64
2018-12-02T02:49:20.236Z,5.65
2018-12-02T02:50:20.213Z,5.62
2018-12-02T02:51:20.210Z,5.66
2018-12-02T02:52:20.225Z,5.68
2018-12-02T02:53:20.189Z,5.67
2018-12-02T02:54:20.306Z,5.68
2018-12-02T02:55:20.198Z,5.7
2018-12-02T02:56:20.202Z,5.69
2018-12-02T02:57:20.157Z,5.73
2018-12-02T02:58:20.196Z,5.68
2018-12-02T02:59:20.197Z,5.7
2018-12-02T03:00:20.208Z,5.69
2018-12-02T03:01:20.191Z,5.72
2018-12-02T03:02:20.257Z,5.71
2018-12-02T03:03:20.204Z,5.71
2018-12-02T03:04:21.002Z,5.7
2018-12-02T03:05:20.485Z,5.73
2018-12-02T03:06:20.271Z,5.72
2018-12-02T03:07:20.293Z,5.74
2018-12-02T03:08:20.135Z,5.73
2018-12-02T03:09:20.188Z,5.76
2018-12-02T03:10:20.166Z,5.75
2018-12-02T03:11:20.156Z,5.73
2018-12-02T03:12:20.736Z,5.73
2018-12-02T03:13:20.192Z,5.75
2018-12-02T03:14:20.410Z,5.75
2018-12-02T03:15:20.803Z,5.74
2018-12-02T03:16:20.676Z,5.73
2018-12-02T03:17:20.281Z,5.71
2018-12-02T03:18:20.302Z,5.72
2018-12-02T03:19:20.224Z,5.7
2018-12-02T03:20:20.207Z,5.68
2018-12-02T03:21:20.218Z,5.7
2018-12-02T03:22:20.298Z,5.71
2018-12-02T03:23:20.427Z,5.73
2018-12-02T03:24:20.496Z,5.73
2018-12-02T03:25:20.267Z,5.73
2018-12-02T03:26:20.277Z,5.7
2018-12-02T03:27:20.353Z,5.73
2018-12-02T03:28:20.274Z,5.76
2018-12-02T03:29:20.214Z,5.75
2018-12-02T03:30:20.411Z,5.73
2018-12-02T03:31:20.337Z,5.76
2018-12-02T03:32:20.256Z,5.77
2018-12-02T03:33:20.404Z,5.78
2018-12-02T03:34:20.625Z,5.77
2018-12-02T03:35:20.207Z,5.79
2018-12-02T03:36:20.566Z,5.76
2018-12-02T03:37:20.120Z,5.75
2018-12-02T03:38:20.139Z,5.74
2018-12-02T03:39:20.538Z,5.76
2018-12-02T03:40:20.178Z,5.74
2018-12-02T03:41:20.483Z,5.75
2018-12-02T03:42:20.199Z,5.75
2018-12-02T03:43:20.158Z,5.78
2018-12-02T03:44:20.408Z,5.76
2018-12-02T03:45:20.361Z,5.78
2018-12-02T03:46:20.194Z,5.77
2018-12-02T03:47:20.291Z,5.8
2018-12-02T03:48:20.231Z,5.82
2018-12-02T03:49:20.945Z,5.77
2018-12-02T03:50:20.192Z,5.78
2018-12-02T03:51:20.428Z,5.76
2018-12-02T03:52:20.544Z,5.74
2018-12-02T03:53:20.286Z,5.76
2018-12-02T03:54:20.402Z,5.83
2018-12-02T03:55:20.575Z,5.76
2018-12-02T03:56:20.119Z,5.78
2018-12-02T03:57:20.281Z,5.79
2018-12-02T03:58:20.339Z,5.8
2018-12-02T03:59:20.193Z,5.77
2018-12-02T04:00:20.207Z,5.79
2018-12-02T04:01:20.361Z,5.72
2018-12-02T04:02:20.168Z,5.81
2018-12-02T04:03:20.224Z,5.75
2018-12-02T04:04:20.253Z,5.77
2018-12-02T04:05:20.148Z,5.79
2018-12-02T04:06:20.137Z,5.78
2018-12-02T04:07:20.927Z,5.85
2018-12-02T04:08:20.140Z,5.83
2018-12-02T04:09:20.178Z,5.83
2018-12-02T04:10:20.156Z,5.9
2018-12-02T04:11:20.268Z,5.95
2018-12-02T04:12:20.519Z,6
2018-12-02T04:13:20.145Z,6.03
2018-12-02T04:14:20.146Z,6.21
2018-12-02T04:15:21.020Z,6.13
2018-12-02T04:16:20.368Z,6.17
2018-12-02T04:17:20.858Z,6.29
2018-12-02T04:18:20.245Z,6.33
2018-12-02T04:19:20.152Z,6.31
2018-12-02T04:20:20.163Z,6.29
2018-12-02T04:21:20.526Z,6.28
2018-12-02T04:22:20.211Z,6.36
2018-12-02T04:23:20.087Z,6.33
2018-12-02T04:24:20.285Z,6.32
2018-12-02T04:25:20.154Z,6.32
2018-12-02T04:26:20.066Z,6.32
2018-12-02T04:27:20.057Z,6.37
2018-12-02T04:28:20.075Z,6.38
2018-12-02T04:29:20.127Z,6.44
2018-12-02T04:30:20.131Z,6.47
2018-12-02T04:31:20.083Z,6.42
2018-12-02T04:32:20.109Z,6.45
2018-12-02T04:33:20.208Z,6.47
2018-12-02T04:34:20.287Z,6.38
2018-12-02T04:35:20.097Z,6.48
2018-12-02T04:36:20.340Z,6.52
2018-12-02T04:37:20.312Z,6.57
2018-12-02T04:38:20.244Z,6.54
2018-12-02T04:39:20.053Z,6.53
2018-12-02T04:40:20.065Z,6.48
2018-12-02T04:41:20.102Z,6.54
2018-12-02T04:42:20.347Z,6.59
2018-12-02T04:43:20.126Z,6.58
2018-12-02T04:44:20.129Z,6.61
2018-12-02T04:45:20.262Z,6.61
2018-12-02T04:46:20.338Z,6.58
2018-12-02T04:47:20.110Z,6.59
2018-12-02T04:48:20.064Z,6.68
2018-12-02T04:49:20.069Z,6.61
2018-12-02T04:50:20.333Z,6.61
2018-12-02T04:51:20.279Z,6.55
2018-12-02T04:52:20.348Z,6.68
2018-12-02T04:53:20.179Z,6.71
2018-12-02T04:54:20.172Z,6.7
2018-12-02T04:55:20.384Z,6.67
2018-12-02T04:56:20.262Z,6.62
2018-12-02T04:57:20.040Z,6.7
2018-12-02T04:58:20.081Z,6.67
2018-12-02T04:59:20.197Z,6.69
2018-12-02T05:00:20.217Z,6.63
2018-12-02T05:01:20.020Z,6.59
2018-12-02T05:02:20.150Z,6.67
2018-12-02T05:03:20.132Z,6.65
2018-12-02T05:04:20.191Z,6.62
2018-12-02T05:05:20.084Z,6.61
2018-12-02T05:06:20.075Z,6.75
2018-12-02T05:07:20.072Z,6.65
2018-12-02T05:08:20.142Z,6.65
2018-12-02T05:09:20.464Z,6.7
2018-12-02T05:10:20.173Z,6.77
2018-12-02T05:11:20.204Z,6.78
2018-12-02T05:12:20.209Z,6.73
2018-12-02T05:13:20.025Z,6.77
2018-12-02T05:14:20.035Z,6.77
2018-12-02T05:15:20.065Z,6.71
2018-12-02T05:16:20.188Z,6.74
2018-12-02T05:17:20.165Z,6.74
2018-12-02T05:18:20.201Z,6.76
2018-12-02T05:19:20.108Z,6.78
2018-12-02T05:20:20.201Z,6.76
2018-12-02T05:21:20.204Z,6.78
2018-12-02T05:22:20.058Z,6.76
2018-12-02T05:23:20.067Z,6.74
2018-12-02T05:24:20.125Z,6.77
2018-12-02T05:25:20.494Z,6.76
2018-12-02T05:26:20.071Z,6.75
2018-12-02T05:27:20.195Z,6.85
2018-12-02T05:28:20.348Z,6.82
2018-12-02T05:29:20.091Z,6.84
2018-12-02T05:30:20.119Z,6.84
2018-12-02T05:31:20.089Z,6.79
2018-12-02T05:32:20.217Z,6.83
2018-12-02T05:33:20.870Z,6.79
2018-12-02T05:34:20.085Z,6.8
2018-12-02T05:35:20.064Z,6.76
2018-12-02T05:36:20.146Z,6.79
2018-12-02T05:37:20.159Z,6.85
2018-12-02T05:38:20.289Z,6.84
2018-12-02T05:39:20.395Z,6.78
2018-12-02T05:40:20.099Z,6.81
2018-12-02T05:41:20.032Z,6.87
2018-12-02T05:42:19.945Z,6.84
2018-12-02T05:43:20.139Z,6.86
2018-12-02T05:44:20.073Z,6.9
2018-12-02T05:45:20.238Z,6.87
2018-12-02T05:46:20.070Z,6.92
2018-12-02T05:47:20.196Z,6.94
2018-12-02T05:48:22.582Z,6.89
2018-12-02T05:49:21.095Z,6.85
2018-12-02T05:50:19.992Z,6.87
2018-12-02T05:51:19.962Z,6.87
2018-12-02T05:52:20.164Z,6.86
2018-12-02T05:53:20.135Z,6.88
2018-12-02T05:54:19.957Z,6.87
2018-12-02T05:55:20.108Z,6.89
2018-12-02T05:56:19.923Z,6.9
2018-12-02T05:57:19.960Z,6.97
2018-12-02T05:58:20.037Z,6.92
2018-12-02T05:59:19.956Z,6.94
2018-12-02T06:00:20.043Z,6.93
2018-12-02T06:01:19.940Z,6.99
2018-12-02T06:02:19.953Z,6.95
2018-12-02T06:03:19.941Z,6.91
2018-12-02T06:04:19.941Z,6.91
2018-12-02T06:05:19.986Z,6.94
2018-12-02T06:06:20.080Z,6.94
2018-12-02T06:07:19.965Z,6.93
2018-12-02T06:08:19.955Z,6.93
2018-12-02T06:09:19.944Z,6.95
2018-12-02T06:10:19.969Z,6.93
2018-12-02T06:11:20.020Z,6.98
2018-12-02T06:12:20.206Z,6.92
2018-12-02T06:13:20.070Z,6.97
2018-12-02T06:14:20.110Z,6.99
2018-12-02T06:15:20.079Z,7.01
2018-12-02T06:16:20.066Z,6.96
2018-12-02T06:17:19.966Z,6.96
2018-12-02T06:18:19.996Z,7.03
2018-12-02T06:19:19.941Z,7.06
2018-12-02T06:20:20.150Z,7.01
2018-12-02T06:21:19.953Z,7.03
2018-12-02T06:22:19.928Z,7.04
2018-12-02T06:23:20.134Z,7.07
2018-12-02T06:24:20.109Z,7.07
2018-12-02T06:25:20.149Z,7.02
2018-12-02T06:26:19.921Z,7.03
2018-12-02T06:27:19.934Z,7.07
2018-12-02T06:28:20.552Z,7.04
2018-12-02T06:29:20.163Z,7.05
2018-12-02T06:30:20.038Z,7.08
2018-12-02T06:31:20.038Z,7.09
2018-12-02T06:32:20.084Z,7.14
2018-12-02T06:33:20.102Z,7.15
2018-12-02T06:34:20.110Z,7.17
2018-12-02T06:35:20.226Z,7.15
2018-12-02T06:36:20.181Z,7.18
2018-12-02T06:37:20.112Z,7.16
2018-12-02T06:38:19.937Z,7.17
2018-12-02T06:39:19.944Z,7.17
2018-12-02T06:40:19.952Z,7.2
2018-12-02T06:41:19.939Z,7.15
2018-12-02T06:42:19.931Z,7.17
2018-12-02T06:43:19.954Z,7.16
2018-12-02T06:44:19.925Z,7.18
2018-12-02T06:45:20.163Z,7.22
2018-12-02T06:46:20.069Z,7.16
2018-12-02T06:47:20.473Z,7.15
2018-12-02T06:48:19.961Z,7.15
2018-12-02T06:49:19.953Z,7.2
2018-12-02T06:50:20.206Z,7.17
2018-12-02T06:51:20.139Z,7.16
2018-12-02T06:52:20.173Z,7.18
2018-12-02T06:53:19.899Z,7.2
2018-12-02T06:54:19.904Z,7.21
2018-12-02T06:55:19.952Z,7.17
2018-12-02T06:56:20.046Z,7.17
2018-12-02T06:57:20.153Z,7.17
2018-12-02T06:58:20.412Z,7.21
2018-12-02T06:59:20.195Z,7.25
2018-12-02T07:00:20.106Z,7.28
2018-12-02T07:01:19.900Z,7.28
2018-12-02T07:02:19.866Z,7.32
2018-12-02T07:03:20.057Z,7.31
2018-12-02T07:04:20.095Z,7.28
2018-12-02T07:05:20.150Z,7.29
2018-12-02T07:06:19.933Z,7.32
2018-12-02T07:07:19.928Z,7.34
2018-12-02T07:08:19.930Z,7.32
2018-12-02T07:09:19.979Z,7.38
2018-12-02T07:10:19.877Z,7.36
2018-12-02T07:11:20.075Z,7.36
2018-12-02T07:12:19.862Z,7.33
2018-12-02T07:13:19.880Z,7.37
2018-12-02T07:14:20.043Z,7.38
2018-12-02T07:15:20.109Z,7.37
2018-12-02T07:16:19.856Z,7.39
2018-12-02T07:17:20.102Z,7.37
2018-12-02T07:18:20.106Z,7.38
2018-12-02T07:19:19.879Z,7.41
2018-12-02T07:20:19.846Z,7.44
2018-12-02T07:21:19.872Z,7.47
2018-12-02T07:22:19.872Z,7.46
2018-12-02T07:23:20.072Z,7.47
2018-12-02T07:24:20.131Z,7.46
2018-12-02T07:25:19.879Z,7.46
2018-12-02T07:26:20.027Z,7.49
2018-12-02T07:27:20.152Z,7.49
2018-12-02T07:28:19.906Z,7.48
2018-12-02T07:29:20.081Z,7.48
2018-12-02T07:30:25.269Z,7.47
2018-12-02T07:31:20.031Z,7.46
2018-12-02T07:32:20.102Z,7.48
2018-12-02T07:33:20.043Z,7.53
2018-12-02T07:34:19.896Z,7.55
2018-12-02T07:35:19.865Z,7.58
2018-12-02T07:36:19.827Z,7.57
2018-12-02T07:37:19.860Z,7.58
2018-12-02T07:38:19.842Z,7.58
2018-12-02T07:39:20.185Z,7.59
2018-12-02T07:40:19.836Z,7.63
2018-12-02T07:41:20.046Z,7.68
2018-12-02T07:42:19.880Z,7.66
2018-12-02T07:43:19.872Z,7.7
2018-12-02T07:44:19.861Z,7.71
2018-12-02T07:45:19.838Z,7.69
2018-12-02T07:46:19.814Z,7.64
2018-12-02T07:47:20.099Z,7.71
2018-12-02T07:48:19.791Z,7.65
2018-12-02T07:49:20.119Z,7.66
2018-12-02T07:50:19.833Z,7.68
2018-12-02T07:51:19.836Z,7.73
2018-12-02T07:52:19.944Z,7.71
2018-12-02T07:53:19.861Z,7.78
2018-12-02T07:54:20.103Z,7.74
2018-12-02T07:55:19.804Z,7.76
2018-12-02T07:56:19.869Z,7.83
2018-12-02T07:57:19.878Z,7.8
2018-12-02T07:58:19.997Z,7.88
2018-12-02T07:59:19.874Z,7.87
2018-12-02T08:00:19.811Z,7.94
2018-12-02T08:01:20.165Z,7.96
2018-12-02T08:02:20.048Z,7.97
2018-12-02T08:03:20.340Z,7.99
2018-12-02T08:04:20.072Z,7.96
2018-12-02T08:05:20.067Z,7.97
2018-12-02T08:06:19.989Z,8.02
2018-12-02T08:07:19.830Z,8.04
2018-12-02T08:08:19.911Z,8.1
2018-12-02T08:09:19.957Z,8.18
2018-12-02T08:10:22.168Z,8.21
2018-12-02T08:11:19.789Z,8.21
2018-12-02T08:12:19.979Z,8.22
2018-12-02T08:13:20.039Z,8.26
2018-12-02T08:14:20.078Z,8.28
2018-12-02T08:15:20.000Z,8.27
2018-12-02T08:16:20.162Z,8.32
2018-12-02T08:17:20.048Z,8.41
2018-12-02T08:18:20.245Z,8.37
2018-12-02T08:19:20.116Z,8.48
2018-12-02T08:20:19.779Z,8.48
2018-12-02T08:21:19.989Z,8.49
2018-12-02T08:22:19.777Z,8.47
2018-12-02T08:23:19.750Z,8.62
2018-12-02T08:24:19.849Z,8.56
2018-12-02T08:25:20.020Z,8.56
2018-12-02T08:26:19.806Z,8.58
2018-12-02T08:27:19.804Z,8.6
2018-12-02T08:28:20.108Z,8.66
2018-12-02T08:29:20.306Z,8.63
2018-12-02T08:30:19.991Z,8.63
2018-12-02T08:31:19.859Z,8.62
2018-12-02T08:32:19.736Z,8.61
2018-12-02T08:33:19.740Z,8.63
2018-12-02T08:34:20.157Z,8.71
2018-12-02T08:35:20.004Z,8.76
2018-12-02T08:36:20.027Z,8.77
2018-12-02T08:37:19.747Z,8.86
2018-12-02T08:38:19.739Z,8.79
2018-12-02T08:39:19.987Z,8.81
2018-12-02T08:40:20.838Z,8.78
2018-12-02T08:41:19.827Z,8.78
2018-12-02T08:42:19.919Z,8.83
2018-12-02T08:43:19.935Z,8.75
2018-12-02T08:44:19.786Z,8.82
2018-12-02T08:45:19.762Z,8.82
2018-12-02T08:46:19.901Z,8.83
2018-12-02T08:47:20.027Z,8.82
2018-12-02T08:48:19.734Z,8.82
2018-12-02T08:49:19.879Z,8.86
2018-12-02T08:50:19.919Z,8.86
2018-12-02T08:51:19.753Z,8.84
2018-12-02T08:52:19.810Z,8.88
2018-12-02T08:53:20.031Z,8.87
2018-12-02T08:54:19.752Z,8.89
2018-12-02T08:55:19.817Z,8.89
2018-12-02T08:56:19.882Z,8.87
2018-12-02T08:57:19.765Z,8.91
2018-12-02T08:58:19.757Z,8.9
2018-12-02T08:59:19.904Z,8.96
2018-12-02T09:00:19.874Z,8.93
2018-12-02T09:01:19.876Z,8.97
2018-12-02T09:02:19.897Z,8.95
2018-12-02T09:03:19.825Z,8.96
2018-12-02T09:04:19.774Z,8.94
2018-12-02T09:05:19.849Z,8.96
2018-12-02T09:06:19.826Z,8.97
2018-12-02T09:07:19.760Z,9.05
2018-12-02T09:08:19.928Z,9.08
2018-12-02T09:09:19.924Z,9.08
2018-12-02T09:10:19.785Z,9.12
2018-12-02T09:11:19.793Z,9.05
2018-12-02T09:12:19.879Z,9.08
2018-12-02T09:13:19.700Z,9.03
2018-12-02T09:14:19.842Z,9.12
2018-12-02T09:15:20.074Z,9.19
2018-12-02T09:16:20.044Z,9.11
2018-12-02T09:17:19.778Z,9.13
2018-12-02T09:18:19.682Z,9.13
2018-12-02T09:19:19.821Z,9.16
2018-12-02T09:20:19.734Z,9.1
2018-12-02T09:21:19.706Z,9.14
2018-12-02T09:22:19.743Z,9.16
2018-12-02T09:23:19.720Z,9.15
2018-12-02T09:24:19.691Z,9.11
2018-12-02T09:25:19.727Z,9.17
2018-12-02T09:26:19.742Z,9.21
2018-12-02T09:27:19.749Z,9.18
2018-12-02T09:28:19.958Z,9.22
2018-12-02T09:29:19.747Z,9.21
2018-12-02T09:30:19.757Z,9.22
2018-12-02T09:31:19.806Z,9.19
2018-12-02T09:32:19.790Z,9.25
2018-12-02T09:33:19.693Z,9.27
2018-12-02T09:34:19.721Z,9.27
2018-12-02T09:35:19.731Z,9.15
2018-12-02T09:36:20.287Z,9.25
2018-12-02T09:37:20.909Z,9.26
2018-12-02T09:38:19.650Z,9.26
2018-12-02T09:39:19.850Z,9.26
2018-12-02T09:40:19.738Z,9.2
2018-12-02T09:41:19.881Z,9.18
2018-12-02T09:42:19.789Z,9.17
2018-12-02T09:43:20.196Z,9.18
2018-12-02T09:44:19.729Z,9.24
2018-12-02T09:45:19.727Z,9.27
2018-12-02T09:46:19.674Z,9.28
2018-12-02T09:47:19.812Z,9.23
2018-12-02T09:48:19.798Z,9.29
2018-12-02T09:49:19.887Z,9.28
2018-12-02T09:50:20.932Z,9.31
2018-12-02T09:51:19.915Z,9.27
2018-12-02T09:52:20.042Z,9.26
2018-12-02T09:53:19.889Z,9.32
2018-12-02T09:54:23.598Z,9.32
2018-12-02T09:55:19.729Z,9.28
2018-12-02T09:56:19.673Z,9.26
2018-12-02T09:57:19.786Z,9.24
2018-12-02T09:58:20.094Z,9.27
2018-12-02T09:59:19.663Z,9.25
2018-12-02T10:00:19.671Z,9.25
2018-12-02T10:01:19.885Z,9.31
2018-12-02T10:02:19.787Z,9.3
2018-12-02T10:03:19.919Z,9.3
2018-12-02T10:04:19.971Z,9.3
2018-12-02T10:05:19.705Z,9.31
2018-12-02T10:06:19.804Z,9.31
2018-12-02T10:07:19.861Z,9.29
2018-12-02T10:08:19.864Z,9.3
2018-12-02T10:09:22.276Z,9.34
2018-12-02T10:10:23.329Z,9.36
2018-12-02T10:11:19.866Z,9.35
2018-12-02T10:12:19.872Z,9.35
2018-12-02T10:13:19.898Z,9.31
2018-12-02T10:14:19.815Z,9.33
2018-12-02T10:15:19.901Z,9.34
2018-12-02T10:16:19.804Z,9.34
2018-12-02T10:17:19.814Z,9.29
2018-12-02T10:18:19.735Z,9.29
2018-12-02T10:19:19.943Z,9.32
2018-12-02T10:20:20.907Z,9.34
2018-12-02T10:21:19.720Z,9.31
2018-12-02T10:22:19.626Z,9.34
2018-12-02T10:23:19.753Z,9.38
2018-12-02T10:24:19.698Z,9.38
2018-12-02T10:25:19.721Z,9.35
2018-12-02T10:26:19.734Z,9.36
2018-12-02T10:27:19.725Z,9.34
2018-12-02T10:28:19.627Z,9.34
2018-12-02T10:29:19.731Z,9.34
2018-12-02T10:30:19.819Z,9.35
2018-12-02T10:31:19.866Z,9.38
2018-12-02T10:32:19.727Z,9.41
2018-12-02T10:33:19.676Z,9.41
2018-12-02T10:34:19.682Z,9.37
2018-12-02T10:35:19.691Z,9.38
2018-12-02T10:36:19.757Z,9.42
2018-12-02T10:37:19.892Z,9.36
2018-12-02T10:38:19.759Z,9.46
2018-12-02T10:39:19.658Z,9.43
2018-12-02T10:40:19.709Z,9.45
2018-12-02T10:41:19.693Z,9.47
2018-12-02T10:42:20.024Z,9.44
2018-12-02T10:43:20.007Z,9.45
2018-12-02T10:44:19.657Z,9.45
2018-12-02T10:45:19.571Z,9.47
2018-12-02T10:46:19.784Z,9.51
2018-12-02T10:47:19.710Z,9.54
2018-12-02T10:48:19.730Z,9.55
2018-12-02T10:49:19.726Z,9.58
2018-12-02T10:50:19.620Z,9.57
2018-12-02T10:51:19.790Z,9.55
2018-12-02T10:52:19.749Z,9.48
2018-12-02T10:53:19.805Z,9.56
2018-12-02T10:54:19.629Z,9.62
2018-12-02T10:55:19.668Z,9.65
2018-12-02T10:56:19.568Z,9.62
2018-12-02T10:57:19.601Z,9.66
2018-12-02T10:58:19.630Z,9.64
2018-12-02T10:59:19.698Z,9.62
2018-12-02T11:00:19.610Z,9.69
2018-12-02T11:01:23.101Z,9.77
2018-12-02T11:02:27.896Z,9.77
2018-12-02T11:03:22.055Z,9.77
2018-12-02T11:04:23.720Z,9.79
2018-12-02T11:05:25.390Z,9.79
2018-12-02T11:06:24.473Z,9.79
2018-12-02T11:07:21.289Z,9.77
2018-12-02T11:08:22.784Z,9.76
2018-12-02T11:09:39.762Z,9.81
2018-12-02T11:10:23.518Z,9.81
2018-12-02T11:11:25.352Z,9.77
2018-12-02T11:12:34.561Z,9.83
2018-12-02T11:13:23.656Z,9.84
2018-12-02T11:14:26.671Z,9.84
2018-12-02T11:15:44.705Z,9.82
2018-12-02T11:16:22.768Z,9.87
2018-12-02T11:17:22.175Z,9.86
2018-12-02T11:18:22.369Z,9.83
2018-12-02T11:19:27.423Z,9.88
2018-12-02T11:20:31.553Z,9.92
2018-12-02T11:21:31.630Z,9.94
2018-12-02T11:22:25.940Z,9.95
2018-12-02T11:23:22.977Z,9.96
2018-12-02T11:24:26.449Z,9.95
2018-12-02T11:25:24.533Z,9.99
2018-12-02T11:26:23.171Z,10
2018-12-02T11:27:25.129Z,9.97
2018-12-02T11:28:19.448Z,9.99
2018-12-02T11:29:19.777Z,10.02
2018-12-02T11:30:19.533Z,10.01
2018-12-02T11:31:19.750Z,10.09
2018-12-02T11:32:19.538Z,10.09
2018-12-02T11:33:19.694Z,10.08
2018-12-02T11:34:19.582Z,10.05
2018-12-02T11:35:19.584Z,10.09
2018-12-02T11:36:19.614Z,10.1
2018-12-02T11:37:19.656Z,10.13
2018-12-02T11:38:19.913Z,10.15
2018-12-02T11:39:19.598Z,10.19
2018-12-02T11:40:19.724Z,10.18
2018-12-02T11:41:19.579Z,10.2
2018-12-02T11:42:19.772Z,10.17
2018-12-02T11:43:19.675Z,10.22
2018-12-02T11:44:19.708Z,10.16
2018-12-02T11:45:19.626Z,10.22
2018-12-02T11:46:19.525Z,10.21
2018-12-02T11:47:19.903Z,10.22
2018-12-02T11:48:20.089Z,10.18
2018-12-02T11:49:19.708Z,10.18
2018-12-02T11:50:23.738Z,10.2
2018-12-02T11:51:21.938Z,10.27
2018-12-02T11:52:19.568Z,10.27
2018-12-02T11:53:19.707Z,10.2
2018-12-02T11:54:19.517Z,10.27
2018-12-02T11:55:19.727Z,10.23
2018-12-02T11:56:19.640Z,10.26
2018-12-02T11:57:19.629Z,10.24
2018-12-02T11:58:19.581Z,10.24
2018-12-02T11:59:19.516Z,10.24
2018-12-02T12:00:19.627Z,10.28
2018-12-02T12:01:19.700Z,10.3
2018-12-02T12:02:19.601Z,10.28
2018-12-02T12:03:19.571Z,10.3
2018-12-02T12:04:19.548Z,10.25
2018-12-02T12:05:19.743Z,10.3
2018-12-02T12:06:19.758Z,10.24
2018-12-02T12:07:19.634Z,10.34
2018-12-02T12:08:19.547Z,10.35
2018-12-02T12:09:19.494Z,10.36
2018-12-02T12:10:19.716Z,10.32
2018-12-02T12:11:19.640Z,10.33
2018-12-02T12:12:19.744Z,10.38
2018-12-02T12:13:19.514Z,10.36
2018-12-02T12:14:19.505Z,10.34
2018-12-02T12:15:19.720Z,10.4
2018-12-02T12:16:19.532Z,10.39
2018-12-02T12:17:19.660Z,10.39
2018-12-02T12:18:19.670Z,10.37
2018-12-02T12:19:19.506Z,10.39
2018-12-02T12:20:23.130Z,10.3
2018-12-02T12:21:20.695Z,10.34
2018-12-02T12:22:19.526Z,10.37
2018-12-02T12:23:20.319Z,10.43
2018-12-02T12:24:19.646Z,10.35
2018-12-02T12:25:19.604Z,10.42
2018-12-02T12:26:19.487Z,10.34
2018-12-02T12:27:19.583Z,10.38
2018-12-02T12:28:19.470Z,10.38
2018-12-02T12:29:19.625Z,10.38
2018-12-02T12:30:19.619Z,10.39
2018-12-02T12:31:19.866Z,10.42
2018-12-02T12:32:19.441Z,10.43
2018-12-02T12:33:19.485Z,10.44
2018-12-02T12:34:19.567Z,10.46
2018-12-02T12:35:19.576Z,10.48
2018-12-02T12:36:19.486Z,10.46
2018-12-02T12:37:19.473Z,10.46
2018-12-02T12:38:19.481Z,10.47
2018-12-02T12:39:20.462Z,10.45
2018-12-02T12:40:19.532Z,10.38
2018-12-02T12:41:19.537Z,10.38
2018-12-02T12:42:19.749Z,10.42
2018-12-02T12:43:19.516Z,10.48
2018-12-02T12:44:19.476Z,10.47
2018-12-02T12:45:19.573Z,10.46
2018-12-02T12:46:19.478Z,10.43
2018-12-02T12:47:19.526Z,10.46
2018-12-02T12:48:19.496Z,10.48
2018-12-02T12:49:20.468Z,10.44
2018-12-02T12:50:19.457Z,10.44
2018-12-02T12:51:19.508Z,10.45
2018-12-02T12:52:19.447Z,10.4
2018-12-02T12:53:19.728Z,10.43
2018-12-02T12:54:19.459Z,10.47
2018-12-02T12:55:19.469Z,10.38
2018-12-02T12:56:19.663Z,10.37
2018-12-02T12:57:19.613Z,10.45
2018-12-02T12:58:19.825Z,10.43
2018-12-02T12:59:19.585Z,10.43
2018-12-02T13:00:19.545Z,10.43
2018-12-02T13:01:19.473Z,10.49
2018-12-02T13:02:19.517Z,10.46
2018-12-02T13:03:19.501Z,10.45
2018-12-02T13:04:19.487Z,10.44
2018-12-02T13:05:19.611Z,10.45
2018-12-02T13:06:19.555Z,10.42
2018-12-02T13:07:19.459Z,10.39
2018-12-02T13:08:19.584Z,10.43
2018-12-02T13:09:19.596Z,10.41
2018-12-02T13:10:19.850Z,10.44
2018-12-02T13:11:19.436Z,10.42
2018-12-02T13:12:19.578Z,10.44
2018-12-02T13:13:19.494Z,10.42
2018-12-02T13:14:19.646Z,10.38
2018-12-02T13:15:19.410Z,10.4
2018-12-02T13:16:19.473Z,10.43
2018-12-02T13:17:19.564Z,10.53